Terminal Aerodrome Forecast
Issued by NWS Wilmington, OH

Current Version | Previous Version | Text Only | Print | Product List | Glossary Off
Versions: 1 2 3 4 5 6 7 8 9 10 11 12 13 14 15 16

000
FTUS41 KILN 281100
TAFILN
TAF
KILN 281128Z 2812/2912 21012KT P6SM SCT050 OVC200
     FM281400 22014G24KT P6SM VCSH OVC050
     FM281600 23014G24KT 5SM -SHRA BR VCTS OVC025CB
     FM282000 26012KT P6SM SCT040 SCT100 BKN200
     FM282300 26007KT P6SM BKN200=

USA.gov is the U.S. government's official web portal to all federal, state and local government web resources and services.